AirNav   Everest Fuels
 
 1417 users online  

53OK Thompson Private Airport
Tuttle, Oklahoma, USA

GOING TO TUTTLE?


FAA INFORMATION EFFECTIVE 01 DECEMBER 2022

Location

FAA Identifier: 53OK
Lat/Long: 35-14-36.6800N 097-45-50.3400W
35-14.611333N 097-45.839000W
35.2435222,-97.7639833
(estimated)
Elevation: 1280 ft. / 390 m (estimated)
Variation: 08E (1980)
From city: 3 miles SE of TUTTLE, OK
Time zone: UTC -6 (UTC -5 during Daylight Saving Time)
Zip code: 73089

Airport Operations

Airport use: Private use. Permission required prior to landing
Activation date: 10/1986
Control tower: no
ARTCC: FORT WORTH CENTER
FSS: MC ALESTER FLIGHT SERVICE STATION
Attendance: UNATNDD
Wind indicator: yes
Segmented circle: no
Lights: FOR LIRL RY 17/35 CALL AMGR 405-381-9387.

Airport Communications

WX ASOS at OKC (12 nm NE): PHONE 405-686-4711
WX AWOS-3 at CHK (13 nm SW): 118.175 (405-574-1016)
WX AWOS-3 at OUN (14 nm E): 119.55 (405-325-7302)
WX AWOS-3 at RCE (15 nm N): 125.05 (405-354-2617)
WX AWOS-3 at RQO (18 nm NW): 118.475 (405-262-0087)
WX ASOS at PWA (18 nm N): PHONE 405-798-2013
  • 122.9

Nearby radio navigation aids

VOR radial/distance  VOR name  Freq  Var
IRWr221/10.3WILL ROGERS VORTAC114.1007E
PWAr190/18.3WILEY POST VOR/DME113.4008E

 
NDB name  Hdg/Dist  Freq  Var  ID
GALLY245/9.135005ERG .-. --.

Airport Services

Runway Information

Runway 17/35

Dimensions: 3000 x 100 ft. / 914 x 30 m
Surface: turf
Runway edge lights: low intensity
CENTER 2400' OF RY LGTD.
RUNWAY 17  RUNWAY 35
Traffic pattern: leftleft
Obstructions: 30 ft. pline, 400 ft. from runway25 ft. trees, 400 ft. from runway

Airport Ownership and Management from official FAA records

Ownership: Privately-owned
Owner: THOMPSON ARPT PROPERTY OWNERS ASSN
793 CS 2934
TUTTLE, OK 73089
Phone (405) 822-0621
Manager: STEVE INGRAHAM
793 CS 2934
TUTTLE, OK 73089
Phone (405) 822-0621

Airport Operational Statistics

Aircraft based on the field: 10
Single engine airplanes: 8
Ultralights: 2
    

Additional Remarks

FOR CD CTC OKE CITY APCH AT 405-681-5683.

Instrument Procedures

There are no published instrument procedures at 53OK.

Some nearby airports with instrument procedures:

KOKC - Will Rogers World Airport (12 nm NE)
KCHK - Chickasha Municipal Airport (13 nm SW)
KOUN - University of Oklahoma Westheimer Airport (14 nm E)
KRCE - Clarence E Page Municipal Airport (15 nm N)
1K4 - David Jay Perry Airport (15 nm E)
KRQO - El Reno Regional Airport (18 nm NW)
KPWA - Wiley Post Airport (18 nm N)
 
Loc | Ops | Rwys | IFR | FBO | Links
Com | Nav | Svcs | Stats | Notes
Area around 53OK (Thompson Private Airport)
 
Road maps at: MapQuest Bing Google
 
Aerial photo
WARNING: Photo may not be current or correct
Aerial photo of 53OK (Thompson Private Airport)
Photo by Travis Scafe
Photo taken 24-Aug-2014
looking northwest.

Do you have a better or more recent aerial photo of Thompson Private Airport that you would like to share? If so, please send us your photo.

 
Sectional chart

 
Airport distance calculator
Flying to Thompson Private Airport? Find the distance to fly.

From to 53OK

Sunrise and sunset
Times for 02-Dec-2022
 Local
(UTC-6)
 Zulu
(UTC)
Morning civil twilight06:5512:55
Sunrise07:2313:23
Sunset17:1823:18
Evening civil twilight17:4623:46

Current date and time
Zulu (UTC)  02-Dec-2022 15:48:05
Local (UTC-6)  02-Dec-2022 09:48:05
 
METAR
KOKC 
12nm NE 
021452Z 18017KT 2SM -DZ BR OVC003 09/09 A2995 RMK AO2 TWR VIS 2 1/2 SLP143 P0000 60000 T00940094 58005
KCHK 
13nm SW 
021530Z AUTO 20014G21KT 7SM OVC005 12/11 A2994 RMK AO2 T01160108
KRCE 
15nm N 
021535Z AUTO 19021KT 8SM OVC005 11/11 A2991 RMK AO2
KOUN 
15nm E 
021445Z 17016G22KT 1 3/4SM BR OVC003 09/09 A2995
KPWA 
18nm N 
021534Z 18018G23KT 4SM BR OVC004 11/10 A2993 RMK AO2 PK WND 19028/1458 T01110100
KHSD 
22nm N 
021535Z AUTO 19021G28KT 10SM FEW007 12/11 A2990 RMK A01
KTIK 
22nm NE 
021540Z AUTO 18019G24KT 5SM BR OVC003 10/09 A2991 RMK AO2 SLP137
TAF
KOKC 
12nm NE 
021120Z 0212/0312 17016G24KT 2SM BR OVC003 TEMPO 0212/0216 2SM -DZ BR OVC003 FM021600 20021G30KT 6SM BR BKN010 FM021900 21019G29KT P6SM SCT200 FM030400 33014G35KT P6SM BKN250 WS020/33060KT
KOUN 
15nm E 
021120Z 0212/0312 17017G23KT 3SM BR OVC005 TEMPO 0212/0216 2SM -DZ BR OVC003 FM021600 20020G29KT 6SM BR OVC010 FM022000 20020G26KT P6SM SCT200 FM030500 35018G34KT P6SM FEW250 WS020/36055KT
NOTAMs
Click for the latest NOTAMs
NOTAMs are issued by the DoD/FAA and will open in a separate window not controlled by AirNav.

 

 
 

Would you like to see your business listed on this page?

 If your business provides an interesting product or service to pilots, flight crews, aircraft, or users of the Thompson Private Airport, you should consider listing it here.  To start the listing process, click on the button below
 
Add a business
 

Other Pages about Thompson Private Airport

Update a link
 
Copyright © AirNav, LLC. All rights reserved. Privacy Policy  Contact